EDT,Max TemperatureF,Mean TemperatureF,Min TemperatureF,Max Dew PointF,MeanDew PointF,Min DewpointF,Max Humidity, Mean Humidity, Min Humidity, Max Sea Level PressureIn, Mean Sea Level PressureIn, Min Sea Level PressureIn, Max VisibilityMiles, Mean VisibilityMiles, Min VisibilityMiles, Max Wind SpeedMPH, Mean Wind SpeedMPH, Max Gust SpeedMPH,PrecipitationIn, CloudCover, Events, WindDirDegrees
2013-10-1,79,63,48,60,54,47,100,79,42,29.97,29.93,29.87,10,9,2,14,3,,0.00,0,,319
2013-10-2,75,63,51,64,58,51,100,87,62,29.99,29.92,29.87,9,6,1,16,3,,0.00,0,,246
2013-10-3,75,62,50,60,54,48,100,81,40,30.10,30.05,30.00,10,8,1,12,3,,0.00,0,,279
2013-10-4,75,64,55,65,59,54,96,85,73,30.07,30.04,30.00,10,9,7,8,2,,0.00,3,,99
2013-10-5,71,64,60,62,59,57,97,89,73,30.11,30.07,30.04,10,8,2,8,4,,0.20,5,Rain-Thunderstorm,36
2013-10-6,64,62,60,61,60,57,100,92,82,30.17,30.13,30.09,10,6,2,16,7,23,0.06,8,Rain,76
2013-10-7,73,68,64,69,66,59,100,93,81,30.08,29.97,29.86,10,4,0,21,9,24,0.07,7,Fog,162
2013-10-8,69,60,51,53,45,41,75,60,39,30.34,30.18,29.95,10,10,10,16,9,23,0.00,0,,347
2013-10-9,64,55,46,46,44,41,86,69,50,30.41,30.37,30.33,10,10,10,18,9,25,0.00,0,,32
2013-10-10,66,58,50,56,51,46,86,78,68,30.32,30.21,30.11,10,10,10,13,9,,0.00,3,,27
2013-10-11,71,63,55,58,54,36,89,75,42,30.11,30.08,30.05,10,10,10,17,11,23,0.00,7,,29
2013-10-12,73,62,51,58,50,41,88,72,45,30.34,30.23,30.11,10,10,8,21,10,25,0.00,3,,42
2013-10-13,62,54,43,49,47,41,93,77,60,30.40,30.37,30.32,10,10,10,15,9,20,0.00,4,,46
2013-10-14,61,50,39,49,45,39,97,83,64,30.39,30.33,30.27,10,10,9,7,4,,0.00,0,,28
2013-10-15,66,55,44,52,47,42,96,76,45,30.27,30.21,30.16,10,10,8,12,6,,0.00,0,,58
2013-10-16,69,60,50,57,54,48,94,84,63,30.14,30.02,29.92,10,10,9,13,5,,0.00,3,,26
2013-10-17,69,64,60,63,60,57,100,90,76,29.91,29.84,29.74,10,8,1,15,5,,0.00,7,Rain,215
2013-10-18,69,61,52,63,54,42,100,73,42,29.94,29.77,29.65,10,10,8,21,12,26,0.00,4,Rain,252
2013-10-19,66,52,39,54,47,39,97,74,50,29.99,29.89,29.75,10,10,9,12,4,,0.00,3,Rain,164
2013-10-20,64,53,42,58,43,32,90,63,30,30.05,29.86,29.71,10,10,9,16,9,25,0.00,2,Rain,289
2013-10-21,64,50,37,48,42,36,93,67,45,30.14,30.08,30.01,10,10,8,17,6,,0.00,0,,228
2013-10-22,66,58,50,54,50,41,78,70,56,29.99,29.83,29.73,10,10,10,13,10,,0.00,2,,235
2013-10-23,50,44,37,40,37,33,93,73,52,29.80,29.71,29.61,10,10,9,13,5,,0.00,5,Rain,343
2013-10-24,55,47,39,36,30,25,77,54,31,29.94,29.84,29.70,10,10,10,18,9,26,0.00,1,,290
2013-10-25,53,42,34,32,28,26,82,58,39,30.20,30.07,29.95,10,10,10,18,9,28,0.00,1,,304
2013-10-26,55,42,30,41,34,28,96,66,37,30.19,30.07,29.90,10,10,8,29,9,36,0.00,1,,241
2013-10-27,60,47,34,39,34,28,82,55,34,30.10,29.93,29.84,10,10,9,17,11,25,0.00,3,Rain,294
2013-10-28,60,44,30,40,34,28,92,66,42,30.34,30.19,30.11,10,10,8,17,5,25,0.00,1,,303
2013-10-29,55,45,36,34,28,24,73,54,35,30.42,30.38,30.35,10,10,10,12,7,,0.00,2,,355
2013-10-30,60,47,37,50,40,29,96,74,59,30.35,30.26,30.20,10,9,8,9,4,,0.00,4,,290
2013-10-31,66,52,41,61,52,39,100,89,82,30.24,30.10,29.83,9,6,2,18,5,,0.07,7,Rain,195